FredonyerEastRWIS Atmospheric Data: 04/08/2021 Summary  Detailed Graphs  Station List

  Temperature     Wind Precipitation Visibility
Timestamp Air Wet
Bulb
Dew-
point
24-hr
Max
24-hr
Min
Relative
Humidity
Atmospheric
Pressure
Avg
Speed
Avg
Dir
Spot
Speed
Spot
Dir
Max
Speed
Max
Dir
  Rate Situation Start End 1 hr 3 hr 6 hr 12 hr 24 hr   Situation
Date Time °F °F °F °F °F % in Hg mph ° mph ° mph ° Y/N in/hr text Date Time Date Time in in in in in mi text
04/08/2021 12:10 AM 40.82 32.36 15.98 59.18 29.30 35.0 Not Reported 3.36 W 2.91 W 7.16 W No 0.000 No Precipitation 03/22/2021 10:51 PM 03/22/2021 11:20 PM 0.000 0.000 0.000 0.000 0.000 Not Reported Not Reported
04/08/2021 12:23 AM 39.38 32.18 18.86 59.18 29.30 43.0 Not Reported 3.36 W 1.34 W 5.14 SW No 0.000 No Precipitation 03/22/2021 10:51 PM 03/22/2021 11:20 PM 0.000 0.000 0.000 0.000 0.000 Not Reported Not Reported
04/08/2021 12:38 AM 39.92 32.18 17.06 59.18 29.30 38.0 Not Reported 3.80 W 3.36 S 5.82 W No 0.000 No Precipitation 03/22/2021 10:51 PM 03/22/2021 11:20 PM 0.000 0.000 0.000 0.000 0.000 Not Reported Not Reported
04/08/2021 12:57 AM 38.12 32.00 19.94 59.18 29.30 47.0 Not Reported 2.01 SW 3.13 W 4.70 W No 0.000 No Precipitation 03/22/2021 10:51 PM 03/22/2021 11:20 PM 0.000 0.000 0.000 0.000 0.000 Not Reported Not Reported
04/08/2021 01:11 AM 35.78 30.92 21.92 59.18 29.30 56.0 Not Reported 1.12 W 1.79 W 3.36 NW No 0.000 No Precipitation 03/22/2021 10:51 PM 03/22/2021 11:20 PM 0.000 0.000 0.000 0.000 0.000 Not Reported Not Reported
04/08/2021 01:23 AM 34.52 30.20 21.56 59.18 29.30 58.0 Not Reported 1.34 W 1.79 W 2.91 W No 0.000 No Precipitation 03/22/2021 10:51 PM 03/22/2021 11:20 PM 0.000 0.000 0.000 0.000 0.000 Not Reported Not Reported
04/08/2021 01:39 AM 33.08 29.12 21.56 59.18 29.30 61.0 Not Reported 0.22 W 0.45 W 1.34 W No 0.000 No Precipitation 03/22/2021 10:51 PM 03/22/2021 11:20 PM 0.000 0.000 0.000 0.000 0.000 Not Reported Not Reported
04/08/2021 01:55 AM 32.00 28.58 22.10 59.18 29.30 66.0 Not Reported 1.34 W 1.57 NW 1.79 NW No 0.000 No Precipitation 03/22/2021 10:51 PM 03/22/2021 11:20 PM 0.000 0.000 0.000 0.000 0.000 Not Reported Not Reported
04/08/2021 02:09 AM 36.50 31.10 20.84 59.18 29.30 52.0 Not Reported 3.13 W 2.46 W 4.47 SW No 0.000 No Precipitation 03/22/2021 10:51 PM 03/22/2021 11:20 PM 0.000 0.000 0.000 0.000 0.000 Not Reported Not Reported
04/08/2021 02:23 AM 36.86 31.82 22.64 59.18 29.30 55.0 Not Reported 1.12 SW 3.36 SW 3.36 SW No 0.000 No Precipitation 03/22/2021 10:51 PM 03/22/2021 11:20 PM 0.000 0.000 0.000 0.000 0.000 Not Reported Not Reported
04/08/2021 02:39 AM 35.06 31.10 23.90 59.18 29.30 62.0 Not Reported 2.46 W 2.46 W 3.13 W No 0.000 No Precipitation 03/22/2021 10:51 PM 03/22/2021 11:20 PM 0.000 0.000 0.000 0.000 0.000 Not Reported Not Reported
04/08/2021 02:53 AM 33.08 29.84 23.72 59.18 29.30 67.0 Not Reported 1.34 W 0.89 W 2.24 W No 0.000 No Precipitation 03/22/2021 10:51 PM 03/22/2021 11:20 PM 0.000 0.000 0.000 0.000 0.000 Not Reported Not Reported
04/08/2021 03:09 AM 32.18 29.30 23.90 59.18 29.30 70.0 Not Reported 0.22 W 1.12 SW 1.12 SW No 0.000 No Precipitation 03/22/2021 10:51 PM 03/22/2021 11:20 PM 0.000 0.000 0.000 0.000 0.000 Not Reported Not Reported
04/08/2021 03:38 AM 30.74 28.22 23.18 59.18 29.30 73.0 Not Reported 0.22 W 0.00 NW 1.12 SW No 0.000 No Precipitation 03/22/2021 10:51 PM 03/22/2021 11:20 PM 0.000 0.000 0.000 0.000 0.000 Not Reported Not Reported
04/08/2021 03:54 AM 30.56 28.22 23.54 59.18 29.30 74.0 Not Reported 0.00 SW 0.22 S 1.12 SW No 0.000 No Precipitation 03/22/2021 10:51 PM 03/22/2021 11:20 PM 0.000 0.000 0.000 0.000 0.000 Not Reported Not Reported
04/08/2021 04:08 AM 30.92 28.22 23.36 59.18 29.30 73.0 Not Reported 0.00 SW 0.00 SW 2.01 SW No 0.000 No Precipitation 03/22/2021 10:51 PM 03/22/2021 11:20 PM 0.000 0.000 0.000 0.000 0.000 Not Reported Not Reported
04/08/2021 04:24 AM 33.08 29.84 24.80 59.18 29.30 70.0 Not Reported 1.79 W 1.34 SW 3.80 W No 0.000 No Precipitation 03/22/2021 10:51 PM 03/22/2021 11:20 PM 0.000 0.000 0.000 0.000 0.000 Not Reported Not Reported
04/08/2021 04:40 AM 31.46 29.12 25.16 59.18 29.30 77.0 Not Reported 1.12 W 2.01 NW 2.01 NW No 0.000 No Precipitation 03/22/2021 10:51 PM 03/22/2021 11:20 PM 0.000 0.000 0.000 0.000 0.000 Not Reported Not Reported
04/08/2021 04:53 AM 32.72 30.20 25.52 59.18 29.30 73.0 Not Reported 1.57 W 0.89 NW 4.25 SW No 0.000 No Precipitation 03/22/2021 10:51 PM 03/22/2021 11:20 PM 0.000 0.000 0.000 0.000 0.000 Not Reported Not Reported
04/08/2021 05:08 AM 33.44 30.56 25.34 59.18 29.30 71.0 Not Reported 0.67 S 0.67 SE 2.91 SW No 0.000 No Precipitation 03/22/2021 10:51 PM 03/22/2021 11:20 PM 0.000 0.000 0.000 0.000 0.000 Not Reported Not Reported
04/08/2021 05:23 AM 31.64 28.76 23.00 59.18 29.30 70.0 Not Reported 0.22 SE 0.89 S 2.68 S No 0.000 No Precipitation 03/22/2021 10:51 PM 03/22/2021 11:20 PM 0.000 0.000 0.000 0.000 0.000 Not Reported Not Reported
04/08/2021 05:38 AM 32.00 29.30 24.26 59.18 29.30 72.0 Not Reported 0.22 W 1.79 SW 1.79 S No 0.000 No Precipitation 03/22/2021 10:51 PM 03/22/2021 11:20 PM 0.000 0.000 0.000 0.000 0.000 Not Reported Not Reported
04/08/2021 05:53 AM 30.74 28.22 23.54 59.18 29.30 74.0 Not Reported 0.45 E 0.00 W 2.24 SE No 0.000 No Precipitation 03/22/2021 10:51 PM 03/22/2021 11:20 PM 0.000 0.000 0.000 0.000 0.000 Not Reported Not Reported
04/08/2021 06:10 AM 31.64 29.84 26.60 59.18 29.30 80.0 Not Reported 1.12 W 0.67 W 2.24 SW No 0.000 No Precipitation 03/22/2021 10:51 PM 03/22/2021 11:20 PM 0.000 0.000 0.000 0.000 0.000 Not Reported Not Reported
04/08/2021 06:23 AM 32.36 29.84 24.80 59.18 29.30 72.0 Not Reported 1.79 SW 1.79 SW 5.14 S No 0.000 No Precipitation 03/22/2021 10:51 PM 03/22/2021 11:20 PM 0.000 0.000 0.000 0.000 0.000 Not Reported Not Reported
04/08/2021 06:40 AM 31.82 29.12 24.08 59.18 29.30 72.0 Not Reported 1.34 S 1.79 W 3.36 SW No 0.000 No Precipitation 03/22/2021 10:51 PM 03/22/2021 11:20 PM 0.000 0.000 0.000 0.000 0.000 Not Reported Not Reported
04/08/2021 06:55 AM 31.10 28.58 24.26 59.18 29.84 75.0 Not Reported 0.22 S 0.89 E 2.01 SE No 0.000 No Precipitation 03/22/2021 10:51 PM 03/22/2021 11:20 PM 0.000 0.000 0.000 0.000 0.000 Not Reported Not Reported
04/08/2021 07:08 AM 32.18 29.66 24.98 59.18 30.02 73.0 Not Reported 0.89 SW 0.00 N 2.68 W No 0.000 No Precipitation 03/22/2021 10:51 PM 03/22/2021 11:20 PM 0.000 0.000 0.000 0.000 0.000 Not Reported Not Reported
04/08/2021 07:23 AM 36.14 31.82 23.90 59.18 30.56 60.0 Not Reported 1.57 S 1.79 S 3.36 SW No 0.000 No Precipitation 03/22/2021 10:51 PM 03/22/2021 11:20 PM 0.000 0.000 0.000 0.000 0.000 Not Reported Not Reported
04/08/2021 07:38 AM 40.64 33.98 23.00 59.18 30.56 49.0 Not Reported 4.47 S 3.13 SW 6.93 SW No 0.000 No Precipitation 03/22/2021 10:51 PM 03/22/2021 11:20 PM 0.000 0.000 0.000 0.000 0.000 Not Reported Not Reported
04/08/2021 07:53 AM 41.54 34.70 23.00 59.18 30.56 47.0 Not Reported 4.92 SW 6.71 SW 7.83 SW No 0.000 No Precipitation 03/22/2021 10:51 PM 03/22/2021 11:20 PM 0.000 0.000 0.000 0.000 0.000 Not Reported Not Reported
04/08/2021 08:08 AM 41.90 34.70 22.64 59.18 30.56 45.0 Not Reported 2.68 W 3.80 SW 7.38 W No 0.000 No Precipitation 03/22/2021 10:51 PM 03/22/2021 11:20 PM 0.000 0.000 0.000 0.000 0.000 Not Reported Not Reported
04/08/2021 08:23 AM 41.90 34.52 22.28 59.18 30.56 45.0 Not Reported 5.37 S 2.01 W 7.83 SW No 0.000 No Precipitation 03/22/2021 10:51 PM 03/22/2021 11:20 PM 0.000 0.000 0.000 0.000 0.000 Not Reported Not Reported
04/08/2021 08:38 AM 42.26 34.52 21.20 59.18 30.56 42.0 Not Reported 4.25 W 3.36 S 8.50 SW No 0.000 No Precipitation 03/22/2021 10:51 PM 03/22/2021 11:20 PM 0.000 0.000 0.000 0.000 0.000 Not Reported Not Reported
04/08/2021 08:53 AM 42.98 34.70 20.30 59.18 30.56 39.0 Not Reported 5.37 SW 1.79 W 8.28 S No 0.000 No Precipitation 03/22/2021 10:51 PM 03/22/2021 11:20 PM 0.000 0.000 0.000 0.000 0.000 Not Reported Not Reported
04/08/2021 09:09 AM 43.34 34.88 20.48 59.18 30.56 39.0 Not Reported 6.04 W 4.92 SW 8.50 W No 0.000 No Precipitation 03/22/2021 10:51 PM 03/22/2021 11:20 PM 0.000 0.000 0.000 0.000 0.000 Not Reported Not Reported
04/08/2021 09:23 AM 44.24 35.24 19.94 59.18 30.56 37.0 Not Reported 2.91 SW 4.92 W 9.62 W No 0.000 No Precipitation 03/22/2021 10:51 PM 03/22/2021 11:20 PM 0.000 0.000 0.000 0.000 0.000 Not Reported Not Reported
04/08/2021 09:39 AM 44.24 35.42 19.76 59.18 30.56 37.0 Not Reported 5.59 SW 3.58 S 7.38 W No 0.000 No Precipitation 03/22/2021 10:51 PM 03/22/2021 11:20 PM 0.000 0.000 0.000 0.000 0.000 Not Reported Not Reported
04/08/2021 09:53 AM 45.50 36.14 20.12 59.18 30.56 35.0 Not Reported 3.58 S 2.46 S 8.05 SW No 0.000 No Precipitation 03/22/2021 10:51 PM 03/22/2021 11:20 PM 0.000 0.000 0.000 0.000 0.000 Not Reported Not Reported
04/08/2021 10:12 AM 47.66 37.22 19.76 59.18 30.56 32.0 Not Reported 5.37 W 5.14 N 7.61 NW No 0.000 No Precipitation 03/22/2021 10:51 PM 03/22/2021 11:20 PM 0.000 0.000 0.000 0.000 0.000 Not Reported Not Reported
04/08/2021 10:24 AM 47.66 36.68 18.32 59.18 30.56 30.0 Not Reported 4.25 S 4.47 W 6.26 SW No 0.000 No Precipitation 03/22/2021 10:51 PM 03/22/2021 11:20 PM 0.000 0.000 0.000 0.000 0.000 Not Reported Not Reported
04/08/2021 10:38 AM 49.10 37.22 16.52 59.18 30.56 26.0 Not Reported 3.13 SE 5.37 S 9.17 SW No 0.000 No Precipitation 03/22/2021 10:51 PM 03/22/2021 11:20 PM 0.000 0.000 0.000 0.000 0.000 Not Reported Not Reported
04/08/2021 10:57 AM 50.54 38.48 18.68 59.18 30.56 27.0 Not Reported 6.04 SE 6.49 SW 9.17 S No 0.000 No Precipitation 03/22/2021 10:51 PM 03/22/2021 11:20 PM 0.000 0.000 0.000 0.000 0.000 Not Reported Not Reported
04/08/2021 11:25 AM 51.80 39.20 18.32 59.18 30.56 26.0 Not Reported 3.13 W 2.68 S 8.50 SW No 0.000 No Precipitation 03/22/2021 10:51 PM 03/22/2021 11:20 PM 0.000 0.000 0.000 0.000 0.000 Not Reported Not Reported
04/08/2021 11:39 AM 53.60 40.10 18.14 59.18 30.56 24.0 Not Reported 3.80 S 7.38 S 7.38 S No 0.000 No Precipitation 03/22/2021 10:51 PM 03/22/2021 11:20 PM 0.000 0.000 0.000 0.000 0.000 Not Reported Not Reported
04/08/2021 11:53 AM 55.58 41.00 17.60 59.18 30.56 22.0 Not Reported 2.46 SW 1.34 S 7.83 SE No 0.000 No Precipitation 03/22/2021 10:51 PM 03/22/2021 11:20 PM 0.000 0.000 0.000 0.000 0.000 Not Reported Not Reported
04/08/2021 12:08 PM 53.06 39.38 15.98 59.18 30.56 22.0 Not Reported 4.70 SW 1.57 S 9.40 SW No 0.000 No Precipitation 03/22/2021 10:51 PM 03/22/2021 11:20 PM 0.000 0.000 0.000 0.000 0.000 Not Reported Not Reported
04/08/2021 12:24 PM 53.60 39.74 16.34 59.18 30.56 22.0 Not Reported 3.13 S 5.59 W 7.83 SW No 0.000 No Precipitation 03/22/2021 10:51 PM 03/22/2021 11:20 PM 0.000 0.000 0.000 0.000 0.000 Not Reported Not Reported
04/08/2021 12:39 PM 55.22 41.00 18.50 59.18 30.56 23.0 Not Reported 7.61 S 11.18 SE 11.18 SE No 0.000 No Precipitation 03/22/2021 10:51 PM 03/22/2021 11:20 PM 0.000 0.000 0.000 0.000 0.000 Not Reported Not Reported
04/08/2021 12:53 PM 54.68 40.64 17.78 59.18 30.56 22.0 Not Reported 6.04 W 3.58 N 10.74 SE No 0.000 No Precipitation 03/22/2021 10:51 PM 03/22/2021 11:20 PM 0.000 0.000 0.000 0.000 0.000 Not Reported Not Reported
04/08/2021 01:25 PM 56.48 41.90 18.14 59.18 30.56 21.0 Not Reported 4.92 S 2.01 S 10.51 S No 0.000 No Precipitation 03/22/2021 10:51 PM 03/22/2021 11:20 PM 0.000 0.000 0.000 0.000 0.000 Not Reported Not Reported
04/08/2021 01:40 PM 56.66 41.72 18.50 59.18 30.56 22.0 Not Reported 6.04 S 8.50 S 8.72 S No 0.000 No Precipitation 03/22/2021 10:51 PM 03/22/2021 11:20 PM 0.000 0.000 0.000 0.000 0.000 Not Reported Not Reported
04/08/2021 01:54 PM 56.84 41.90 18.50 59.18 30.56 21.0 Not Reported 5.82 SW 5.59 SW 10.07 SW No 0.000 No Precipitation 03/22/2021 10:51 PM 03/22/2021 11:20 PM 0.000 0.000 0.000 0.000 0.000 Not Reported Not Reported
04/08/2021 02:08 PM 56.84 42.08 19.76 59.54 30.56 23.0 Not Reported 4.03 SW 4.03 SE 8.72 S No 0.000 No Precipitation 03/22/2021 10:51 PM 03/22/2021 11:20 PM 0.000 0.000 0.000 0.000 0.000 Not Reported Not Reported
04/08/2021 02:23 PM 58.28 42.98 19.94 59.54 30.56 22.0 Not Reported 5.82 S 6.71 SW 9.84 S No 0.000 No Precipitation 03/22/2021 10:51 PM 03/22/2021 11:20 PM 0.000 0.000 0.000 0.000 0.000 Not Reported Not Reported
04/08/2021 02:38 PM 59.18 43.52 20.30 59.54 30.56 21.0 Not Reported 5.59 SE 4.92 E 8.95 S No 0.000 No Precipitation 03/22/2021 10:51 PM 03/22/2021 11:20 PM 0.000 0.000 0.000 0.000 0.000 Not Reported Not Reported
04/08/2021 02:55 PM 59.18 43.52 20.84 59.54 30.56 22.0 Not Reported 6.26 S 10.51 SE 10.51 SE No 0.000 No Precipitation 03/22/2021 10:51 PM 03/22/2021 11:20 PM 0.000 0.000 0.000 0.000 0.000 Not Reported Not Reported
04/08/2021 03:12 PM 57.92 42.62 19.76 59.54 30.56 22.0 Not Reported 4.25 W 4.70 S 7.16 SW No 0.000 No Precipitation 03/22/2021 10:51 PM 03/22/2021 11:20 PM 0.000 0.000 0.000 0.000 0.000 Not Reported Not Reported
04/08/2021 03:23 PM 58.64 43.34 20.66 60.08 30.56 22.0 Not Reported 5.37 S 3.58 S 8.50 SW No 0.000 No Precipitation 03/22/2021 10:51 PM 03/22/2021 11:20 PM 0.000 0.000 0.000 0.000 0.000 Not Reported Not Reported
04/08/2021 03:40 PM 60.08 44.06 20.84 60.26 30.56 21.0 Not Reported 5.82 SW 4.92 W 8.05 NW No 0.000 No Precipitation 03/22/2021 10:51 PM 03/22/2021 11:20 PM 0.000 0.000 0.000 0.000 0.000 Not Reported Not Reported
04/08/2021 03:56 PM 59.72 43.70 20.48 61.16 30.56 21.0 Not Reported 3.80 S 4.47 S 7.83 S No 0.000 No Precipitation 03/22/2021 10:51 PM 03/22/2021 11:20 PM 0.000 0.000 0.000 0.000 0.000 Not Reported Not Reported
04/08/2021 04:09 PM 58.82 42.98 19.04 61.16 30.56 21.0 Not Reported 4.70 S 6.04 S 9.40 SW No 0.000 No Precipitation 03/22/2021 10:51 PM 03/22/2021 11:20 PM 0.000 0.000 0.000 0.000 0.000 Not Reported Not Reported
04/08/2021 04:23 PM 59.18 43.16 18.86 61.16 30.56 20.0 Not Reported 4.92 S 3.13 W 8.05 S No 0.000 No Precipitation 03/22/2021 10:51 PM 03/22/2021 11:20 PM 0.000 0.000 0.000 0.000 0.000 Not Reported Not Reported
04/08/2021 04:41 PM 59.18 43.16 19.04 61.16 30.56 20.0 Not Reported 4.70 SW 2.46 E 6.04 SW No 0.000 No Precipitation 03/22/2021 10:51 PM 03/22/2021 11:20 PM 0.000 0.000 0.000 0.000 0.000 Not Reported Not Reported
04/08/2021 04:54 PM 59.72 44.06 20.66 61.16 30.56 21.0 Not Reported 5.37 S 3.80 E 9.62 SW No 0.000 No Precipitation 03/22/2021 10:51 PM 03/22/2021 11:20 PM 0.000 0.000 0.000 0.000 0.000 Not Reported Not Reported
04/08/2021 05:09 PM 60.08 43.70 19.40 61.16 30.56 20.0 Not Reported 4.47 S 3.58 SW 9.84 SE No 0.000 No Precipitation 03/22/2021 10:51 PM 03/22/2021 11:20 PM 0.000 0.000 0.000 0.000 0.000 Not Reported Not Reported
04/08/2021 05:23 PM 59.90 43.88 20.84 61.16 30.56 21.0 Not Reported 3.13 SW 0.22 S 6.49 W No 0.000 No Precipitation 03/22/2021 10:51 PM 03/22/2021 11:20 PM 0.000 0.000 0.000 0.000 0.000 Not Reported Not Reported
04/08/2021 05:40 PM 59.36 44.06 22.46 61.16 30.56 23.0 Not Reported 2.68 SE 1.12 E 6.49 S No 0.000 No Precipitation 03/22/2021 10:51 PM 03/22/2021 11:20 PM 0.000 0.000 0.000 0.000 0.000 Not Reported Not Reported
04/08/2021 05:54 PM 59.54 44.60 24.44 61.16 30.56 25.0 Not Reported 2.24 SW 2.46 SW 4.03 S No 0.000 No Precipitation 03/22/2021 10:51 PM 03/22/2021 11:20 PM 0.000 0.000 0.000 0.000 0.000 Not Reported Not Reported
04/08/2021 06:09 PM 58.46 43.88 23.54 61.16 30.56 25.0 Not Reported 2.01 W 2.68 SW 4.25 S No 0.000 No Precipitation 03/22/2021 10:51 PM 03/22/2021 11:20 PM 0.000 0.000 0.000 0.000 0.000 Not Reported Not Reported
04/08/2021 06:23 PM 56.84 43.34 24.62 61.16 30.56 28.0 Not Reported 2.68 W 0.45 W 4.92 W No 0.000 No Precipitation 03/22/2021 10:51 PM 03/22/2021 11:20 PM 0.000 0.000 0.000 0.000 0.000 Not Reported Not Reported
04/08/2021 06:38 PM 53.96 42.80 27.86 61.16 30.56 36.0 Not Reported 1.79 W 2.68 NW 4.92 W No 0.000 No Precipitation 03/22/2021 10:51 PM 03/22/2021 11:20 PM 0.000 0.000 0.000 0.000 0.000 Not Reported Not Reported
04/08/2021 06:53 PM 50.00 41.54 30.92 61.16 30.56 47.0 Not Reported 1.79 W 2.91 SW 4.70 SW No 0.000 No Precipitation 03/22/2021 10:51 PM 03/22/2021 11:20 PM 0.000 0.000 0.000 0.000 0.000 Not Reported Not Reported
04/08/2021 07:08 PM 46.94 40.28 31.46 61.16 30.56 54.0 Not Reported 2.24 NW 2.46 W 3.13 W No 0.000 No Precipitation 03/22/2021 10:51 PM 03/22/2021 11:20 PM 0.000 0.000 0.000 0.000 0.000 Not Reported Not Reported
04/08/2021 07:23 PM 45.68 39.74 31.82 61.16 30.56 57.0 Not Reported 2.68 W 1.79 NW 3.36 W No 0.000 No Precipitation 03/22/2021 10:51 PM 03/22/2021 11:20 PM 0.000 0.000 0.000 0.000 0.000 Not Reported Not Reported
04/08/2021 07:38 PM 44.24 38.66 31.46 61.16 30.56 60.0 Not Reported 1.79 NW 1.57 W 2.91 NW No 0.000 No Precipitation 03/22/2021 10:51 PM 03/22/2021 11:20 PM 0.000 0.000 0.000 0.000 0.000 Not Reported Not Reported
04/08/2021 07:56 PM 42.98 38.12 31.64 61.16 30.56 63.0 Not Reported 2.46 W 2.68 NW 3.13 W No 0.000 No Precipitation 03/22/2021 10:51 PM 03/22/2021 11:20 PM 0.000 0.000 0.000 0.000 0.000 Not Reported Not Reported
04/08/2021 08:08 PM 41.90 37.22 30.74 61.16 30.56 63.0 Not Reported 0.67 NW 0.00 NW 3.13 W No 0.000 No Precipitation 03/22/2021 10:51 PM 03/22/2021 11:20 PM 0.000 0.000 0.000 0.000 0.000 Not Reported Not Reported
04/08/2021 08:23 PM 40.82 36.68 30.74 61.16 30.56 66.0 Not Reported 0.45 W 0.22 SW 0.89 SW No 0.000 No Precipitation 03/22/2021 10:51 PM 03/22/2021 11:20 PM 0.000 0.000 0.000 0.000 0.000 Not Reported Not Reported
04/08/2021 08:41 PM 39.02 35.42 30.20 61.16 30.56 69.0 Not Reported 0.67 W 0.67 W 1.79 W No 0.000 No Precipitation 03/22/2021 10:51 PM 03/22/2021 11:20 PM 0.000 0.000 0.000 0.000 0.000 Not Reported Not Reported
04/08/2021 08:54 PM 38.12 34.88 29.84 61.16 30.56 71.0 Not Reported 0.89 W 0.22 SW 1.79 W No 0.000 No Precipitation 03/22/2021 10:51 PM 03/22/2021 11:20 PM 0.000 0.000 0.000 0.000 0.000 Not Reported Not Reported
04/08/2021 09:08 PM 37.40 34.16 29.66 61.16 30.56 72.0 Not Reported 0.00 N 1.12 N 1.57 W No 0.000 No Precipitation 03/22/2021 10:51 PM 03/22/2021 11:20 PM 0.000 0.000 0.000 0.000 0.000 Not Reported Not Reported
04/08/2021 09:23 PM 37.04 33.62 28.40 61.16 30.56 70.0 Not Reported 1.57 NW 0.89 NW 1.79 NW No 0.000 No Precipitation 03/22/2021 10:51 PM 03/22/2021 11:20 PM 0.000 0.000 0.000 0.000 0.000 Not Reported Not Reported
04/08/2021 09:39 PM 36.32 32.90 27.68 61.16 30.56 70.0 Not Reported 0.45 W 0.89 NW 1.57 NW No 0.000 No Precipitation 03/22/2021 10:51 PM 03/22/2021 11:20 PM 0.000 0.000 0.000 0.000 0.000 Not Reported Not Reported
04/08/2021 09:56 PM 35.24 32.00 26.78 61.16 30.56 70.0 Not Reported 0.89 W 1.12 W 2.01 W No 0.000 No Precipitation 03/22/2021 10:51 PM 03/22/2021 11:20 PM 0.000 0.000 0.000 0.000 0.000 Not Reported Not Reported
04/08/2021 10:08 PM 34.88 31.82 26.60 61.16 30.56 71.0 Not Reported 0.00 NW 0.00 NW 0.89 W No 0.000 No Precipitation 03/22/2021 10:51 PM 03/22/2021 11:20 PM 0.000 0.000 0.000 0.000 0.000 Not Reported Not Reported
04/08/2021 10:25 PM 34.52 31.28 25.88 61.16 30.56 69.0 Not Reported 1.79 NW 0.22 NW 2.24 NW No 0.000 No Precipitation 03/22/2021 10:51 PM 03/22/2021 11:20 PM 0.000 0.000 0.000 0.000 0.000 Not Reported Not Reported
04/08/2021 10:39 PM 34.34 31.28 25.70 61.16 30.56 70.0 Not Reported 0.67 NW 1.12 W 1.57 NW No 0.000 No Precipitation 03/22/2021 10:51 PM 03/22/2021 11:20 PM 0.000 0.000 0.000 0.000 0.000 Not Reported Not Reported
04/08/2021 10:55 PM 33.62 30.74 25.34 61.16 30.56 71.0 Not Reported 1.57 W 1.79 W 2.01 NW No 0.000 No Precipitation 03/22/2021 10:51 PM 03/22/2021 11:20 PM 0.000 0.000 0.000 0.000 0.000 Not Reported Not Reported
04/08/2021 11:08 PM 33.08 30.38 25.34 61.16 30.56 72.0 Not Reported 0.89 NW 1.79 NW 1.79 NW No 0.000 No Precipitation 03/22/2021 10:51 PM 03/22/2021 11:20 PM 0.000 0.000 0.000 0.000 0.000 Not Reported Not Reported
04/08/2021 11:23 PM 32.72 30.38 25.52 61.16 30.56 73.0 Not Reported 1.12 NW 0.89 NW 1.79 NW No 0.000 No Precipitation 03/22/2021 10:51 PM 03/22/2021 11:20 PM 0.000 0.000 0.000 0.000 0.000 Not Reported Not Reported
04/08/2021 11:56 PM 32.72 30.02 25.16 61.16 30.56 72.0 Not Reported 0.45 NW 1.12 NW 1.12 NW No 0.000 No Precipitation 03/22/2021 10:51 PM 03/22/2021 11:20 PM 0.000 0.000 0.000 0.000 0.000 Not Reported Not Reported